sensor_id;sensor_type;location;lat;lon;timestamp;P1;durP1;ratioP1;P2;durP2;ratioP2
75971;SDS011;64651;47.540;19.088;2023-05-14T00:02:56;13.25;;;8.40;;
75971;SDS011;64651;47.540;19.088;2023-05-14T00:07:59;16.63;;;8.37;;
75971;SDS011;64651;47.540;19.088;2023-05-14T00:13:01;16.73;;;8.77;;
75971;SDS011;64651;47.540;19.088;2023-05-14T00:18:03;14.02;;;8.13;;
75971;SDS011;64651;47.540;19.088;2023-05-14T00:23:05;14.63;;;9.03;;
75971;SDS011;64651;47.540;19.088;2023-05-14T00:28:07;16.30;;;8.70;;
75971;SDS011;64651;47.540;19.088;2023-05-14T00:33:10;15.40;;;8.07;;
75971;SDS011;64651;47.540;19.088;2023-05-14T00:38:12;17.05;;;8.50;;
75971;SDS011;64651;47.540;19.088;2023-05-14T00:43:18;14.00;;;8.30;;
75971;SDS011;64651;47.540;19.088;2023-05-14T00:48:21;14.40;;;7.90;;
75971;SDS011;64651;47.540;19.088;2023-05-14T00:53:24;17.12;;;7.93;;
75971;SDS011;64651;47.540;19.088;2023-05-14T00:58:27;14.60;;;7.60;;
75971;SDS011;64651;47.540;19.088;2023-05-14T01:03:30;13.20;;;7.57;;
75971;SDS011;64651;47.540;19.088;2023-05-14T01:08:43;16.55;;;8.38;;
75971;SDS011;64651;47.540;19.088;2023-05-14T01:19:40;14.87;;;8.13;;
75971;SDS011;64651;47.540;19.088;2023-05-14T01:24:43;15.00;;;7.60;;
75971;SDS011;64651;47.540;19.088;2023-05-14T01:29:51;16.48;;;8.30;;
75971;SDS011;64651;47.540;19.088;2023-05-14T01:34:59;13.52;;;8.00;;
75971;SDS011;64651;47.540;19.088;2023-05-14T01:40:02;12.93;;;7.60;;
75971;SDS011;64651;47.540;19.088;2023-05-14T01:45:05;14.27;;;7.87;;
75971;SDS011;64651;47.540;19.088;2023-05-14T01:50:09;13.27;;;8.10;;
75971;SDS011;64651;47.540;19.088;2023-05-14T01:55:11;13.50;;;7.82;;
75971;SDS011;64651;47.540;19.088;2023-05-14T02:00:13;13.43;;;7.75;;
75971;SDS011;64651;47.540;19.088;2023-05-14T02:05:16;13.97;;;8.07;;
75971;SDS011;64651;47.540;19.088;2023-05-14T02:10:18;13.20;;;7.55;;
75971;SDS011;64651;47.540;19.088;2023-05-14T02:15:20;13.10;;;7.20;;
75971;SDS011;64651;47.540;19.088;2023-05-14T02:20:22;11.55;;;6.95;;
75971;SDS011;64651;47.540;19.088;2023-05-14T02:25:25;12.37;;;7.47;;
75971;SDS011;64651;47.540;19.088;2023-05-14T02:30:27;13.73;;;7.27;;
75971;SDS011;64651;47.540;19.088;2023-05-14T02:35:30;12.77;;;7.15;;
75971;SDS011;64651;47.540;19.088;2023-05-14T02:40:32;12.37;;;7.17;;
75971;SDS011;64651;47.540;19.088;2023-05-14T02:45:35;13.32;;;7.45;;
75971;SDS011;64651;47.540;19.088;2023-05-14T02:50:37;12.63;;;7.25;;
75971;SDS011;64651;47.540;19.088;2023-05-14T02:55:39;15.10;;;7.67;;
75971;SDS011;64651;47.540;19.088;2023-05-14T03:00:42;12.52;;;7.30;;
75971;SDS011;64651;47.540;19.088;2023-05-14T03:05:44;12.43;;;7.37;;
75971;SDS011;64651;47.540;19.088;2023-05-14T03:10:46;12.37;;;7.28;;
75971;SDS011;64651;47.540;19.088;2023-05-14T03:15:49;13.18;;;6.75;;
75971;SDS011;64651;47.540;19.088;2023-05-14T03:20:55;11.83;;;6.93;;
75971;SDS011;64651;47.540;19.088;2023-05-14T03:25:57;11.40;;;6.22;;
75971;SDS011;64651;47.540;19.088;2023-05-14T03:31:00;13.10;;;6.70;;
75971;SDS011;64651;47.540;19.088;2023-05-14T03:36:02;12.10;;;6.70;;
75971;SDS011;64651;47.540;19.088;2023-05-14T03:41:06;12.15;;;6.75;;
75971;SDS011;64651;47.540;19.088;2023-05-14T03:46:08;11.00;;;5.80;;
75971;SDS011;64651;47.540;19.088;2023-05-14T03:51:10;12.57;;;6.90;;
75971;SDS011;64651;47.540;19.088;2023-05-14T03:56:12;12.60;;;7.87;;
75971;SDS011;64651;47.540;19.088;2023-05-14T04:01:15;12.05;;;6.60;;
75971;SDS011;64651;47.540;19.088;2023-05-14T04:06:17;12.52;;;6.85;;
75971;SDS011;64651;47.540;19.088;2023-05-14T04:11:19;11.77;;;6.17;;
75971;SDS011;64651;47.540;19.088;2023-05-14T04:16:22;11.68;;;6.20;;
75971;SDS011;64651;47.540;19.088;2023-05-14T04:21:24;11.40;;;6.27;;
75971;SDS011;64651;47.540;19.088;2023-05-14T04:26:26;9.77;;;5.47;;
75971;SDS011;64651;47.540;19.088;2023-05-14T04:31:28;9.85;;;5.55;;
75971;SDS011;64651;47.540;19.088;2023-05-14T04:36:31;11.27;;;5.50;;
75971;SDS011;64651;47.540;19.088;2023-05-14T04:41:33;11.77;;;5.60;;
75971;SDS011;64651;47.540;19.088;2023-05-14T04:46:35;9.87;;;5.60;;
75971;SDS011;64651;47.540;19.088;2023-05-14T04:51:38;10.20;;;5.60;;
75971;SDS011;64651;47.540;19.088;2023-05-14T04:56:40;9.55;;;4.97;;
75971;SDS011;64651;47.540;19.088;2023-05-14T05:01:42;11.93;;;5.33;;
75971;SDS011;64651;47.540;19.088;2023-05-14T05:06:46;11.10;;;5.57;;
75971;SDS011;64651;47.540;19.088;2023-05-14T05:11:48;9.20;;;5.20;;
75971;SDS011;64651;47.540;19.088;2023-05-14T05:16:50;10.10;;;5.18;;
75971;SDS011;64651;47.540;19.088;2023-05-14T05:21:52;9.40;;;5.18;;
75971;SDS011;64651;47.540;19.088;2023-05-14T05:26:54;9.60;;;4.87;;
75971;SDS011;64651;47.540;19.088;2023-05-14T05:31:57;10.98;;;5.70;;
75971;SDS011;64651;47.540;19.088;2023-05-14T05:36:59;12.30;;;5.70;;
75971;SDS011;64651;47.540;19.088;2023-05-14T05:42:02;10.02;;;5.85;;
75971;SDS011;64651;47.540;19.088;2023-05-14T05:47:04;10.20;;;5.53;;
75971;SDS011;64651;47.540;19.088;2023-05-14T05:52:07;9.20;;;4.80;;
75971;SDS011;64651;47.540;19.088;2023-05-14T05:57:09;10.05;;;5.55;;
75971;SDS011;64651;47.540;19.088;2023-05-14T06:02:11;10.90;;;5.57;;
75971;SDS011;64651;47.540;19.088;2023-05-14T06:07:13;11.68;;;5.40;;
75971;SDS011;64651;47.540;19.088;2023-05-14T06:12:16;12.25;;;5.80;;
75971;SDS011;64651;47.540;19.088;2023-05-14T06:17:18;9.83;;;5.17;;
75971;SDS011;64651;47.540;19.088;2023-05-14T06:22:20;11.52;;;5.82;;
75971;SDS011;64651;47.540;19.088;2023-05-14T06:27:22;13.47;;;7.23;;
75971;SDS011;64651;47.540;19.088;2023-05-14T06:32:24;13.62;;;6.60;;
75971;SDS011;64651;47.540;19.088;2023-05-14T06:37:26;12.48;;;6.15;;
75971;SDS011;64651;47.540;19.088;2023-05-14T06:42:29;10.93;;;6.07;;
75971;SDS011;64651;47.540;19.088;2023-05-14T06:47:31;11.38;;;6.10;;
75971;SDS011;64651;47.540;19.088;2023-05-14T06:52:35;11.03;;;5.80;;
75971;SDS011;64651;47.540;19.088;2023-05-14T06:57:38;10.95;;;6.20;;
75971;SDS011;64651;47.540;19.088;2023-05-14T07:02:41;11.90;;;7.12;;
75971;SDS011;64651;47.540;19.088;2023-05-14T07:07:43;12.43;;;6.30;;
75971;SDS011;64651;47.540;19.088;2023-05-14T07:12:46;11.70;;;6.70;;
75971;SDS011;64651;47.540;19.088;2023-05-14T07:17:48;11.17;;;6.37;;
75971;SDS011;64651;47.540;19.088;2023-05-14T07:22:51;12.05;;;6.43;;
75971;SDS011;64651;47.540;19.088;2023-05-14T07:27:53;11.88;;;5.87;;
75971;SDS011;64651;47.540;19.088;2023-05-14T07:32:56;13.03;;;6.83;;
75971;SDS011;64651;47.540;19.088;2023-05-14T07:37:58;12.45;;;7.03;;
75971;SDS011;64651;47.540;19.088;2023-05-14T07:43:01;10.90;;;6.47;;
75971;SDS011;64651;47.540;19.088;2023-05-14T07:48:03;10.77;;;6.28;;
75971;SDS011;64651;47.540;19.088;2023-05-14T07:53:05;12.65;;;6.28;;
75971;SDS011;64651;47.540;19.088;2023-05-14T07:58:09;13.97;;;6.37;;
75971;SDS011;64651;47.540;19.088;2023-05-14T08:03:11;12.23;;;6.57;;
75971;SDS011;64651;47.540;19.088;2023-05-14T08:08:14;10.27;;;6.60;;
75971;SDS011;64651;47.540;19.088;2023-05-14T08:13:17;11.88;;;6.80;;
75971;SDS011;64651;47.540;19.088;2023-05-14T08:18:19;11.32;;;6.68;;
75971;SDS011;64651;47.540;19.088;2023-05-14T08:23:21;12.20;;;6.70;;
75971;SDS011;64651;47.540;19.088;2023-05-14T08:28:23;11.57;;;6.97;;
75971;SDS011;64651;47.540;19.088;2023-05-14T08:33:26;11.20;;;6.60;;
75971;SDS011;64651;47.540;19.088;2023-05-14T08:38:28;10.45;;;6.65;;
75971;SDS011;64651;47.540;19.088;2023-05-14T08:43:35;11.63;;;6.68;;
75971;SDS011;64651;47.540;19.088;2023-05-14T08:48:49;12.73;;;6.80;;
75971;SDS011;64651;47.540;19.088;2023-05-14T08:53:59;11.93;;;7.37;;
75971;SDS011;64651;47.540;19.088;2023-05-14T08:59:04;11.00;;;7.23;;
75971;SDS011;64651;47.540;19.088;2023-05-14T09:04:06;14.38;;;7.25;;
75971;SDS011;64651;47.540;19.088;2023-05-14T09:09:09;11.45;;;6.82;;
75971;SDS011;64651;47.540;19.088;2023-05-14T09:14:12;13.43;;;6.73;;
75971;SDS011;64651;47.540;19.088;2023-05-14T09:19:14;10.70;;;7.20;;
75971;SDS011;64651;47.540;19.088;2023-05-14T09:29:27;12.88;;;7.43;;
75971;SDS011;64651;47.540;19.088;2023-05-14T09:34:32;12.00;;;7.18;;
75971;SDS011;64651;47.540;19.088;2023-05-14T09:39:36;13.47;;;7.70;;
75971;SDS011;64651;47.540;19.088;2023-05-14T09:44:39;11.63;;;7.40;;
75971;SDS011;64651;47.540;19.088;2023-05-14T09:49:41;14.07;;;7.90;;
75971;SDS011;64651;47.540;19.088;2023-05-14T09:54:43;13.85;;;7.68;;
75971;SDS011;64651;47.540;19.088;2023-05-14T09:59:48;12.60;;;7.03;;
75971;SDS011;64651;47.540;19.088;2023-05-14T10:04:51;12.80;;;7.50;;
75971;SDS011;64651;47.540;19.088;2023-05-14T10:10:00;12.45;;;7.28;;
75971;SDS011;64651;47.540;19.088;2023-05-14T10:15:05;13.77;;;7.73;;
75971;SDS011;64651;47.540;19.088;2023-05-14T10:20:18;12.77;;;7.65;;
75971;SDS011;64651;47.540;19.088;2023-05-14T10:25:21;14.87;;;9.02;;
75971;SDS011;64651;47.540;19.088;2023-05-14T10:30:24;13.07;;;8.03;;
75971;SDS011;64651;47.540;19.088;2023-05-14T10:35:28;12.95;;;7.90;;
75971;SDS011;64651;47.540;19.088;2023-05-14T10:40:30;12.00;;;8.00;;
75971;SDS011;64651;47.540;19.088;2023-05-14T10:45:32;11.73;;;7.75;;
75971;SDS011;64651;47.540;19.088;2023-05-14T10:50:35;12.37;;;8.07;;
75971;SDS011;64651;47.540;19.088;2023-05-14T10:55:37;14.93;;;8.33;;
75971;SDS011;64651;47.540;19.088;2023-05-14T11:00:40;12.88;;;8.07;;
75971;SDS011;64651;47.540;19.088;2023-05-14T11:05:42;12.73;;;8.30;;
75971;SDS011;64651;47.540;19.088;2023-05-14T11:10:45;12.57;;;8.52;;
75971;SDS011;64651;47.540;19.088;2023-05-14T11:15:48;14.38;;;8.52;;
75971;SDS011;64651;47.540;19.088;2023-05-14T11:20:50;13.37;;;8.90;;
75971;SDS011;64651;47.540;19.088;2023-05-14T11:25:53;13.88;;;8.98;;
75971;SDS011;64651;47.540;19.088;2023-05-14T11:30:57;14.50;;;8.70;;
75971;SDS011;64651;47.540;19.088;2023-05-14T11:35:59;14.60;;;10.02;;
75971;SDS011;64651;47.540;19.088;2023-05-14T11:41:02;15.95;;;9.57;;
75971;SDS011;64651;47.540;19.088;2023-05-14T11:46:06;16.80;;;9.90;;
75971;SDS011;64651;47.540;19.088;2023-05-14T11:51:08;14.27;;;9.30;;
75971;SDS011;64651;47.540;19.088;2023-05-14T11:56:10;14.40;;;8.70;;
75971;SDS011;64651;47.540;19.088;2023-05-14T12:01:13;15.65;;;9.70;;
75971;SDS011;64651;47.540;19.088;2023-05-14T12:06:16;14.45;;;8.45;;
75971;SDS011;64651;47.540;19.088;2023-05-14T12:11:19;15.57;;;8.50;;
75971;SDS011;64651;47.540;19.088;2023-05-14T12:16:22;12.93;;;8.32;;
75971;SDS011;64651;47.540;19.088;2023-05-14T12:21:25;13.97;;;8.40;;
75971;SDS011;64651;47.540;19.088;2023-05-14T12:26:31;13.90;;;8.18;;
75971;SDS011;64651;47.540;19.088;2023-05-14T12:31:34;14.52;;;8.30;;
75971;SDS011;64651;47.540;19.088;2023-05-14T12:36:37;14.70;;;7.93;;
75971;SDS011;64651;47.540;19.088;2023-05-14T12:41:39;15.98;;;8.65;;
75971;SDS011;64651;47.540;19.088;2023-05-14T12:46:42;14.23;;;8.33;;
75971;SDS011;64651;47.540;19.088;2023-05-14T12:51:44;16.62;;;8.70;;
75971;SDS011;64651;47.540;19.088;2023-05-14T12:56:47;15.80;;;8.68;;
75971;SDS011;64651;47.540;19.088;2023-05-14T13:01:50;15.00;;;8.33;;
75971;SDS011;64651;47.540;19.088;2023-05-14T13:06:53;15.77;;;9.18;;
75971;SDS011;64651;47.540;19.088;2023-05-14T13:11:55;14.40;;;8.90;;
75971;SDS011;64651;47.540;19.088;2023-05-14T13:16:57;16.58;;;9.38;;
75971;SDS011;64651;47.540;19.088;2023-05-14T13:22:00;14.98;;;8.60;;
75971;SDS011;64651;47.540;19.088;2023-05-14T13:27:02;13.87;;;8.97;;
75971;SDS011;64651;47.540;19.088;2023-05-14T13:32:04;15.00;;;9.07;;
75971;SDS011;64651;47.540;19.088;2023-05-14T13:37:07;16.00;;;8.70;;
75971;SDS011;64651;47.540;19.088;2023-05-14T13:42:09;15.38;;;8.48;;
75971;SDS011;64651;47.540;19.088;2023-05-14T13:47:11;15.02;;;8.95;;
75971;SDS011;64651;47.540;19.088;2023-05-14T13:52:13;15.77;;;8.63;;
75971;SDS011;64651;47.540;19.088;2023-05-14T13:57:16;14.85;;;8.85;;
75971;SDS011;64651;47.540;19.088;2023-05-14T14:02:18;15.67;;;9.30;;
75971;SDS011;64651;47.540;19.088;2023-05-14T14:07:20;15.45;;;9.63;;
75971;SDS011;64651;47.540;19.088;2023-05-14T14:12:22;15.18;;;8.75;;
75971;SDS011;64651;47.540;19.088;2023-05-14T14:17:25;17.17;;;9.23;;
75971;SDS011;64651;47.540;19.088;2023-05-14T14:22:27;16.05;;;9.70;;
75971;SDS011;64651;47.540;19.088;2023-05-14T14:27:30;16.03;;;10.23;;
75971;SDS011;64651;47.540;19.088;2023-05-14T14:32:36;15.07;;;9.13;;
75971;SDS011;64651;47.540;19.088;2023-05-14T14:37:39;17.50;;;9.63;;
75971;SDS011;64651;47.540;19.088;2023-05-14T14:42:42;17.10;;;9.67;;
75971;SDS011;64651;47.540;19.088;2023-05-14T14:47:45;15.93;;;9.02;;
75971;SDS011;64651;47.540;19.088;2023-05-14T14:52:47;15.33;;;8.73;;
75971;SDS011;64651;47.540;19.088;2023-05-14T14:57:49;14.65;;;7.95;;
75971;SDS011;64651;47.540;19.088;2023-05-14T15:02:51;15.10;;;7.72;;
75971;SDS011;64651;47.540;19.088;2023-05-14T15:07:54;12.40;;;6.57;;
75971;SDS011;64651;47.540;19.088;2023-05-14T15:12:56;11.15;;;5.97;;
75971;SDS011;64651;47.540;19.088;2023-05-14T15:18:00;10.77;;;5.60;;
75971;SDS011;64651;47.540;19.088;2023-05-14T15:23:02;9.32;;;5.00;;
75971;SDS011;64651;47.540;19.088;2023-05-14T15:28:05;9.75;;;5.10;;
75971;SDS011;64651;47.540;19.088;2023-05-14T15:33:09;10.90;;;5.30;;
75971;SDS011;64651;47.540;19.088;2023-05-14T15:38:11;11.25;;;6.05;;
75971;SDS011;64651;47.540;19.088;2023-05-14T15:43:13;11.87;;;6.00;;
75971;SDS011;64651;47.540;19.088;2023-05-14T15:48:16;14.57;;;5.90;;
75971;SDS011;64651;47.540;19.088;2023-05-14T15:53:18;10.25;;;5.95;;
75971;SDS011;64651;47.540;19.088;2023-05-14T15:58:20;11.33;;;5.90;;
75971;SDS011;64651;47.540;19.088;2023-05-14T16:03:23;12.10;;;6.37;;
75971;SDS011;64651;47.540;19.088;2023-05-14T16:08:25;11.40;;;5.83;;
75971;SDS011;64651;47.540;19.088;2023-05-14T16:13:27;11.32;;;5.68;;
75971;SDS011;64651;47.540;19.088;2023-05-14T16:18:30;10.43;;;5.90;;
75971;SDS011;64651;47.540;19.088;2023-05-14T16:23:32;11.87;;;5.80;;
75971;SDS011;64651;47.540;19.088;2023-05-14T16:28:34;10.68;;;5.70;;
75971;SDS011;64651;47.540;19.088;2023-05-14T16:33:36;11.60;;;5.57;;
75971;SDS011;64651;47.540;19.088;2023-05-14T16:38:38;11.48;;;6.00;;
75971;SDS011;64651;47.540;19.088;2023-05-14T16:44:01;10.55;;;5.37;;
75971;SDS011;64651;47.540;19.088;2023-05-14T16:49:03;9.73;;;4.70;;
75971;SDS011;64651;47.540;19.088;2023-05-14T16:54:05;10.25;;;5.03;;
75971;SDS011;64651;47.540;19.088;2023-05-14T16:59:07;8.40;;;4.50;;
75971;SDS011;64651;47.540;19.088;2023-05-14T17:04:10;11.50;;;5.25;;
75971;SDS011;64651;47.540;19.088;2023-05-14T17:09:12;9.88;;;4.70;;
75971;SDS011;64651;47.540;19.088;2023-05-14T17:14:14;9.80;;;4.93;;
75971;SDS011;64651;47.540;19.088;2023-05-14T17:19:16;11.65;;;4.93;;
75971;SDS011;64651;47.540;19.088;2023-05-14T17:24:19;9.83;;;5.07;;
75971;SDS011;64651;47.540;19.088;2023-05-14T17:29:21;9.02;;;4.70;;
75971;SDS011;64651;47.540;19.088;2023-05-14T17:34:23;10.68;;;5.60;;
75971;SDS011;64651;47.540;19.088;2023-05-14T17:39:26;11.80;;;5.43;;
75971;SDS011;64651;47.540;19.088;2023-05-14T17:44:28;11.30;;;5.82;;
75971;SDS011;64651;47.540;19.088;2023-05-14T17:49:31;11.20;;;6.13;;
75971;SDS011;64651;47.540;19.088;2023-05-14T17:54:33;11.70;;;6.20;;
75971;SDS011;64651;47.540;19.088;2023-05-14T17:59:35;11.15;;;5.78;;
75971;SDS011;64651;47.540;19.088;2023-05-14T18:04:38;11.47;;;6.10;;
75971;SDS011;64651;47.540;19.088;2023-05-14T18:09:40;13.15;;;7.18;;
75971;SDS011;64651;47.540;19.088;2023-05-14T18:14:42;11.47;;;6.33;;
75971;SDS011;64651;47.540;19.088;2023-05-14T18:19:46;11.48;;;6.65;;
75971;SDS011;64651;47.540;19.088;2023-05-14T18:24:48;12.75;;;6.65;;
75971;SDS011;64651;47.540;19.088;2023-05-14T18:29:51;12.03;;;7.17;;
75971;SDS011;64651;47.540;19.088;2023-05-14T18:34:54;13.07;;;7.20;;
75971;SDS011;64651;47.540;19.088;2023-05-14T18:39:56;12.73;;;7.17;;
75971;SDS011;64651;47.540;19.088;2023-05-14T18:44:58;11.50;;;6.53;;
75971;SDS011;64651;47.540;19.088;2023-05-14T18:50:01;12.00;;;7.20;;
75971;SDS011;64651;47.540;19.088;2023-05-14T18:55:04;12.27;;;7.10;;
75971;SDS011;64651;47.540;19.088;2023-05-14T19:00:06;12.50;;;7.03;;
75971;SDS011;64651;47.540;19.088;2023-05-14T19:05:09;15.10;;;8.10;;
75971;SDS011;64651;47.540;19.088;2023-05-14T19:10:11;12.70;;;7.35;;
75971;SDS011;64651;47.540;19.088;2023-05-14T19:15:14;13.35;;;8.13;;
75971;SDS011;64651;47.540;19.088;2023-05-14T19:20:17;14.03;;;7.83;;
75971;SDS011;64651;47.540;19.088;2023-05-14T19:25:19;13.68;;;8.00;;
75971;SDS011;64651;47.540;19.088;2023-05-14T19:30:21;14.03;;;8.23;;
75971;SDS011;64651;47.540;19.088;2023-05-14T19:35:24;15.07;;;7.85;;
75971;SDS011;64651;47.540;19.088;2023-05-14T19:40:27;17.30;;;7.97;;
75971;SDS011;64651;47.540;19.088;2023-05-14T19:45:29;13.90;;;7.23;;
75971;SDS011;64651;47.540;19.088;2023-05-14T19:50:31;13.60;;;7.85;;
75971;SDS011;64651;47.540;19.088;2023-05-14T19:55:34;14.07;;;7.40;;
75971;SDS011;64651;47.540;19.088;2023-05-14T20:00:36;13.52;;;7.12;;
75971;SDS011;64651;47.540;19.088;2023-05-14T20:05:39;12.52;;;7.18;;
75971;SDS011;64651;47.540;19.088;2023-05-14T20:10:41;12.70;;;6.97;;
75971;SDS011;64651;47.540;19.088;2023-05-14T20:15:45;12.18;;;7.12;;
75971;SDS011;64651;47.540;19.088;2023-05-14T20:20:47;13.07;;;7.40;;
75971;SDS011;64651;47.540;19.088;2023-05-14T20:25:49;12.05;;;6.95;;
75971;SDS011;64651;47.540;19.088;2023-05-14T20:30:52;12.63;;;7.12;;
75971;SDS011;64651;47.540;19.088;2023-05-14T20:35:55;12.83;;;7.17;;
75971;SDS011;64651;47.540;19.088;2023-05-14T20:40:57;20.15;;;7.72;;
75971;SDS011;64651;47.540;19.088;2023-05-14T20:45:59;13.40;;;7.40;;
75971;SDS011;64651;47.540;19.088;2023-05-14T20:51:02;14.43;;;8.35;;
75971;SDS011;64651;47.540;19.088;2023-05-14T20:56:07;13.35;;;7.45;;
75971;SDS011;64651;47.540;19.088;2023-05-14T21:01:09;14.47;;;8.00;;
75971;SDS011;64651;47.540;19.088;2023-05-14T21:06:11;16.08;;;8.10;;
75971;SDS011;64651;47.540;19.088;2023-05-14T21:11:13;13.27;;;7.50;;
75971;SDS011;64651;47.540;19.088;2023-05-14T21:16:15;14.48;;;8.05;;
75971;SDS011;64651;47.540;19.088;2023-05-14T21:21:18;13.75;;;8.07;;
75971;SDS011;64651;47.540;19.088;2023-05-14T21:26:20;14.87;;;7.93;;
75971;SDS011;64651;47.540;19.088;2023-05-14T21:31:23;15.90;;;8.50;;
75971;SDS011;64651;47.540;19.088;2023-05-14T21:36:25;16.83;;;8.90;;
75971;SDS011;64651;47.540;19.088;2023-05-14T21:41:29;14.13;;;7.78;;
75971;SDS011;64651;47.540;19.088;2023-05-14T21:46:32;14.87;;;7.80;;
75971;SDS011;64651;47.540;19.088;2023-05-14T21:51:34;12.53;;;6.37;;
75971;SDS011;64651;47.540;19.088;2023-05-14T21:56:36;12.43;;;7.12;;
75971;SDS011;64651;47.540;19.088;2023-05-14T22:01:39;15.27;;;6.83;;
75971;SDS011;64651;47.540;19.088;2023-05-14T22:07:01;10.40;;;6.00;;
75971;SDS011;64651;47.540;19.088;2023-05-14T22:12:04;11.50;;;6.45;;
75971;SDS011;64651;47.540;19.088;2023-05-14T22:17:07;11.83;;;5.87;;
75971;SDS011;64651;47.540;19.088;2023-05-14T22:22:09;10.02;;;5.57;;
75971;SDS011;64651;47.540;19.088;2023-05-14T22:27:11;10.67;;;6.20;;
75971;SDS011;64651;47.540;19.088;2023-05-14T22:32:14;11.15;;;6.40;;
75971;SDS011;64651;47.540;19.088;2023-05-14T22:37:16;11.82;;;6.30;;
75971;SDS011;64651;47.540;19.088;2023-05-14T22:42:19;11.50;;;6.40;;
75971;SDS011;64651;47.540;19.088;2023-05-14T22:47:21;11.63;;;7.00;;
75971;SDS011;64651;47.540;19.088;2023-05-14T22:52:24;13.67;;;6.97;;
75971;SDS011;64651;47.540;19.088;2023-05-14T22:57:26;13.00;;;7.50;;
75971;SDS011;64651;47.540;19.088;2023-05-14T23:02:28;13.10;;;6.95;;
75971;SDS011;64651;47.540;19.088;2023-05-14T23:07:31;13.03;;;7.20;;
75971;SDS011;64651;47.540;19.088;2023-05-14T23:12:33;16.87;;;8.07;;
75971;SDS011;64651;47.540;19.088;2023-05-14T23:17:36;14.37;;;8.23;;
75971;SDS011;64651;47.540;19.088;2023-05-14T23:22:39;14.10;;;7.90;;
75971;SDS011;64651;47.540;19.088;2023-05-14T23:27:41;14.45;;;8.15;;
75971;SDS011;64651;47.540;19.088;2023-05-14T23:32:43;12.83;;;7.93;;
75971;SDS011;64651;47.540;19.088;2023-05-14T23:37:45;15.15;;;8.32;;
75971;SDS011;64651;47.540;19.088;2023-05-14T23:42:50;15.43;;;8.87;;
75971;SDS011;64651;47.540;19.088;2023-05-14T23:47:52;15.88;;;8.90;;
75971;SDS011;64651;47.540;19.088;2023-05-14T23:52:55;14.85;;;8.85;;
75971;SDS011;64651;47.540;19.088;2023-05-14T23:57:57;16.93;;;9.77;;
